Time;durP1;ratioP1;P1;durP2;ratioP2;P2;SDS_P1;SDS_P2;PMS_P1;PMS_P2;Temp;Humidity;BMP_temperature;BMP_pressure;BME280_temperature;BME280_humidity;BME280_pressure;Samples;Min_cycle;Max_cycle;Signal;HPM_P1;HPM_P2
2023/01/08 00:03:29;;;;;;;11.40;10.45;;;;;;;;;;10031049;28;20051;-68
2023/01/08 00:08:25;;;;;;;11.57;10.68;;;;;;;;;;10032589;28;20051;-69
2023/01/08 00:13:22;;;;;;;11.07;10.25;;;;;;;;;;10041040;28;20059;-67
2023/01/08 00:18:18;;;;;;;11.25;10.40;;;;;;;;;;10037406;28;20071;-67
2023/01/08 00:23:15;;;;;;;11.55;10.65;;;;;;;;;;10034169;28;20103;-66
2023/01/08 00:28:13;;;;;;;11.60;10.73;;;;;;;;;;10030274;28;20531;-67
2023/01/08 00:33:10;;;;;;;11.40;10.50;;;;;;;;;;10033506;28;20102;-67
2023/01/08 00:38:06;;;;;;;12.02;11.13;;;;;;;;;;10031847;28;20043;-67
2023/01/08 00:43:03;;;;;;;11.43;10.63;;;;;;;;;;10032224;28;20062;-66
2023/01/08 00:47:59;;;;;;;11.57;10.77;;;;;;;;;;10028070;28;20103;-66
2023/01/08 00:52:55;;;;;;;10.63;9.82;;;;;;;;;;10034919;28;20043;-66
2023/01/08 00:57:51;;;;;;;10.93;10.02;;;;;;;;;;10027296;28;20047;-67
2023/01/08 01:02:48;;;;;;;11.23;10.27;;;;;;;;;;10032623;28;20142;-67
2023/01/08 01:07:44;;;;;;;11.23;10.38;;;;;;;;;;10031257;28;20055;-68
2023/01/08 01:12:41;;;;;;;11.10;10.30;;;;;;;;;;10020961;28;20047;-68
2023/01/08 01:17:38;;;;;;;11.98;10.98;;;;;;;;;;10025685;28;20095;-68
2023/01/08 01:22:35;;;;;;;11.85;10.88;;;;;;;;;;10035152;28;20055;-68
2023/01/08 01:27:31;;;;;;;11.50;10.60;;;;;;;;;;10031694;28;20131;-68
2023/01/08 01:32:27;;;;;;;12.38;11.38;;;;;;;;;;10031625;28;20508;-66
2023/01/08 01:37:23;;;;;;;11.35;10.55;;;;;;;;;;10029399;28;20054;-66
2023/01/08 01:47:39;;;;;;;12.23;11.23;;;;;;;;;;10028409;28;20142;-67
2023/01/08 01:52:44;;;;;;;12.30;11.23;;;;;;;;;;10028349;28;20055;-68
2023/01/08 01:57:43;;;;;;;11.77;10.98;;;;;;;;;;10025723;28;20056;-68
2023/01/08 02:02:39;;;;;;;11.80;11.00;;;;;;;;;;10025858;28;20409;-68
2023/01/08 02:07:38;;;;;;;11.50;10.70;;;;;;;;;;10027264;28;20043;-68
2023/01/08 02:12:36;;;;;;;11.65;10.85;;;;;;;;;;10030557;28;20062;-68
2023/01/08 02:17:51;;;;;;;12.38;11.38;;;;;;;;;;10029321;28;20048;-68
2023/01/08 02:22:54;;;;;;;11.75;10.90;;;;;;;;;;10030637;28;20083;-68
2023/01/08 02:27:52;;;;;;;12.95;11.85;;;;;;;;;;10033343;28;20571;-66
2023/01/08 02:32:49;;;;;;;12.68;11.75;;;;;;;;;;10029532;28;20147;-66
2023/01/08 02:37:45;;;;;;;13.18;12.23;;;;;;;;;;10027897;28;20063;-68
2023/01/08 02:42:46;;;;;;;12.52;11.63;;;;;;;;;;10035128;28;20049;-66
2023/01/08 02:47:55;;;;;;;11.43;10.52;;;;;;;;;;10036672;28;20150;-66
2023/01/08 02:53:09;;;;;;;12.00;11.18;;;;;;;;;;10039177;28;20046;-68
2023/01/08 02:58:06;;;;;;;12.35;11.55;;;;;;;;;;10034796;28;20512;-68
2023/01/08 03:03:08;;;;;;;11.77;10.80;;;;;;;;;;10042305;28;20150;-68
2023/01/08 03:08:05;;;;;;;11.77;10.88;;;;;;;;;;10033026;28;20138;-67
2023/01/08 03:13:04;;;;;;;11.68;10.88;;;;;;;;;;10027440;28;20050;-67
2023/01/08 03:18:03;;;;;;;12.55;11.65;;;;;;;;;;10033984;28;20047;-67
2023/01/08 03:23:01;;;;;;;11.93;11.02;;;;;;;;;;10034110;28;20081;-67
2023/01/08 03:28:00;;;;;;;12.10;11.00;;;;;;;;;;10037046;28;20496;-67
2023/01/08 03:32:58;;;;;;;11.80;10.95;;;;;;;;;;10042884;28;20040;-67
2023/01/08 03:38:01;;;;;;;11.73;10.73;;;;;;;;;;10037032;28;20166;-67
2023/01/08 03:42:58;;;;;;;12.27;11.48;;;;;;;;;;10040525;28;20150;-67
2023/01/08 03:47:55;;;;;;;12.55;11.65;;;;;;;;;;10033438;28;20043;-67
2023/01/08 03:52:52;;;;;;;13.40;12.50;;;;;;;;;;10033792;28;20047;-67
2023/01/08 03:57:48;;;;;;;12.85;11.95;;;;;;;;;;10038122;28;20071;-67
2023/01/08 04:02:44;;;;;;;11.90;10.85;;;;;;;;;;10034658;28;20497;-67
2023/01/08 04:07:40;;;;;;;12.90;11.90;;;;;;;;;;10043869;28;20086;-67
2023/01/08 04:12:37;;;;;;;13.25;11.88;;;;;;;;;;10037118;28;20416;-67
2023/01/08 04:17:33;;;;;;;12.25;11.35;;;;;;;;;;10033428;28;20720;-67
2023/01/08 04:22:29;;;;;;;12.43;11.55;;;;;;;;;;10034772;28;20466;-67
2023/01/08 04:27:26;;;;;;;12.40;11.50;;;;;;;;;;10034101;28;20575;-67
2023/01/08 04:32:22;;;;;;;12.80;11.90;;;;;;;;;;10041206;28;20126;-67
2023/01/08 04:37:18;;;;;;;12.57;11.68;;;;;;;;;;10034915;28;20048;-67
2023/01/08 04:42:14;;;;;;;11.98;11.07;;;;;;;;;;10036037;28;20583;-68
2023/01/08 04:47:11;;;;;;;11.85;11.02;;;;;;;;;;10024845;28;20043;-68
2023/01/08 04:52:07;;;;;;;12.13;11.15;;;;;;;;;;10040611;28;20068;-69
2023/01/08 04:57:03;;;;;;;12.10;11.27;;;;;;;;;;10035285;28;20044;-68
2023/01/08 05:02:00;;;;;;;12.45;11.45;;;;;;;;;;10032367;28;20126;-68
2023/01/08 05:06:56;;;;;;;11.63;10.82;;;;;;;;;;10028604;28;20131;-68
2023/01/08 05:11:53;;;;;;;12.73;11.73;;;;;;;;;;10034148;28;20052;-68
2023/01/08 05:16:49;;;;;;;12.98;11.98;;;;;;;;;;10031834;28;20075;-68
2023/01/08 05:21:45;;;;;;;12.52;11.57;;;;;;;;;;10038026;28;20118;-66
2023/01/08 05:26:41;;;;;;;12.75;11.60;;;;;;;;;;10032470;28;20488;-68
2023/01/08 05:31:38;;;;;;;12.82;11.82;;;;;;;;;;10032568;28;20061;-68
2023/01/08 05:36:34;;;;;;;13.93;12.73;;;;;;;;;;10032382;28;20507;-67
2023/01/08 05:41:30;;;;;;;13.35;12.25;;;;;;;;;;10031411;28;20058;-68
2023/01/08 05:46:26;;;;;;;12.90;11.85;;;;;;;;;;10033874;28;20428;-68
2023/01/08 05:51:23;;;;;;;14.70;13.55;;;;;;;;;;10027471;28;20052;-68
2023/01/08 05:56:19;;;;;;;14.13;13.15;;;;;;;;;;10028197;28;20573;-68
2023/01/08 06:01:15;;;;;;;13.68;12.38;;;;;;;;;;10030227;28;20483;-68
2023/01/08 06:06:12;;;;;;;13.90;12.95;;;;;;;;;;10027663;28;20058;-68
2023/01/08 06:11:10;;;;;;;13.70;12.80;;;;;;;;;;10029893;28;20044;-66
2023/01/08 06:16:06;;;;;;;13.73;12.73;;;;;;;;;;10029820;28;20130;-66
2023/01/08 06:21:04;;;;;;;13.95;12.98;;;;;;;;;;10028367;28;20050;-66
2023/01/08 06:26:00;;;;;;;14.68;13.77;;;;;;;;;;10031186;28;20047;-67
2023/01/08 06:30:57;;;;;;;15.00;13.88;;;;;;;;;;10030112;28;20063;-66
2023/01/08 06:35:54;;;;;;;14.88;13.85;;;;;;;;;;10033378;28;20070;-66
2023/01/08 06:40:50;;;;;;;15.38;14.38;;;;;;;;;;10027430;28;20143;-66
2023/01/08 06:45:53;;;;;;;16.38;15.27;;;;;;;;;;10024285;28;20067;-66
2023/01/08 06:50:50;;;;;;;15.75;14.75;;;;;;;;;;10029126;28;20131;-66
2023/01/08 06:55:46;;;;;;;15.75;14.65;;;;;;;;;;10028510;28;20039;-65
2023/01/08 07:00:43;;;;;;;16.02;14.93;;;;;;;;;;10028762;28;20063;-67
2023/01/08 07:05:39;;;;;;;15.68;14.68;;;;;;;;;;10027218;28;20043;-66
2023/01/08 07:10:35;;;;;;;14.95;13.90;;;;;;;;;;10029904;28;20052;-67
2023/01/08 07:15:32;;;;;;;17.42;16.23;;;;;;;;;;10029913;28;20400;-66
2023/01/08 07:20:28;;;;;;;16.92;15.82;;;;;;;;;;10033715;28;20499;-67
2023/01/08 07:25:24;;;;;;;16.48;15.48;;;;;;;;;;10024986;28;20059;-67
2023/01/08 07:30:21;;;;;;;16.92;15.75;;;;;;;;;;10030963;28;21056;-67
2023/01/08 07:35:26;;;;;;;16.48;15.35;;;;;;;;;;10020110;28;20134;-66
2023/01/08 07:40:22;;;;;;;17.40;16.15;;;;;;;;;;10020585;28;20563;-66
2023/01/08 07:45:18;;;;;;;17.55;16.20;;;;;;;;;;10018619;28;20115;-67
2023/01/08 07:50:15;;;;;;;16.17;15.18;;;;;;;;;;10020575;28;20704;-66
2023/01/08 07:55:11;;;;;;;17.13;16.02;;;;;;;;;;10020295;28;20043;-68
2023/01/08 08:00:08;;;;;;;17.73;16.52;;;;;;;;;;10019780;28;20238;-68
2023/01/08 08:05:04;;;;;;;16.60;15.52;;;;;;;;;;10022164;28;20142;-68
2023/01/08 08:10:03;;;;;;;17.88;16.73;;;;;;;;;;10031320;29;20047;-68
2023/01/08 08:14:59;;;;;;;18.35;17.20;;;;;;;;;;10031472;29;20059;-68
2023/01/08 08:19:55;;;;;;;19.05;17.85;;;;;;;;;;10035419;28;20044;-68
2023/01/08 08:24:51;;;;;;;21.38;20.08;;;;;;;;;;10032851;28;20504;-68
2023/01/08 08:29:48;;;;;;;22.75;21.50;;;;;;;;;;10030752;28;20067;-69
2023/01/08 08:34:44;;;;;;;25.98;24.17;;;;;;;;;;10031097;28;20126;-68
2023/01/08 08:39:40;;;;;;;27.52;25.83;;;;;;;;;;10032643;28;20094;-68
2023/01/08 08:44:37;;;;;;;28.33;26.52;;;;;;;;;;10028822;28;20122;-68
2023/01/08 08:49:33;;;;;;;31.02;29.15;;;;;;;;;;10017218;28;20048;-68
2023/01/08 08:54:29;;;;;;;31.48;29.67;;;;;;;;;;10014126;28;20070;-67
2023/01/08 08:59:25;;;;;;;32.00;30.10;;;;;;;;;;10015674;28;20055;-68
2023/01/08 09:04:22;;;;;;;32.30;30.25;;;;;;;;;;10018300;28;20054;-67
2023/01/08 09:09:18;;;;;;;30.67;28.70;;;;;;;;;;10014092;28;20669;-68
2023/01/08 09:14:15;;;;;;;31.90;30.10;;;;;;;;;;10021145;28;20044;-68
2023/01/08 09:19:11;;;;;;;33.25;30.95;;;;;;;;;;10017829;28;20040;-69
2023/01/08 09:24:07;;;;;;;31.65;29.85;;;;;;;;;;10024126;28;20051;-69
2023/01/08 09:29:04;;;;;;;30.77;28.88;;;;;;;;;;10021572;28;20073;-67
2023/01/08 09:34:00;;;;;;;29.75;27.95;;;;;;;;;;10022743;28;20543;-67
2023/01/08 09:38:56;;;;;;;28.85;26.92;;;;;;;;;;10024149;28;20154;-67
2023/01/08 09:43:54;;;;;;;31.38;29.38;;;;;;;;;;10027112;28;20745;-67
2023/01/08 09:48:51;;;;;;;29.48;27.67;;;;;;;;;;10011130;28;20047;-67
2023/01/08 09:53:55;;;;;;;29.80;28.10;;;;;;;;;;10014691;28;20067;-67
2023/01/08 09:58:55;;;;;;;28.95;27.15;;;;;;;;;;10017407;28;20040;-67
2023/01/08 10:03:54;;;;;;;28.27;26.58;;;;;;;;;;10024232;28;20055;-67
2023/01/08 10:08:51;;;;;;;29.30;27.60;;;;;;;;;;10020525;28;20428;-67
2023/01/08 10:13:51;;;;;;;26.27;24.77;;;;;;;;;;10023794;28;20044;-67
2023/01/08 10:18:47;;;;;;;26.13;24.42;;;;;;;;;;10015698;28;20079;-67
2023/01/08 10:23:50;;;;;;;26.30;24.80;;;;;;;;;;10016866;28;20082;-67
2023/01/08 10:28:47;;;;;;;28.15;26.35;;;;;;;;;;10016056;28;20520;-68
2023/01/08 10:33:44;;;;;;;28.00;26.40;;;;;;;;;;10022756;28;20051;-68
2023/01/08 10:38:47;;;;;;;27.50;25.65;;;;;;;;;;10024031;28;20071;-68
2023/01/08 10:43:49;;;;;;;27.80;26.17;;;;;;;;;;10024178;28;20071;-68
2023/01/08 10:48:46;;;;;;;25.35;23.75;;;;;;;;;;10006894;28;20051;-68
2023/01/08 10:53:43;;;;;;;25.77;24.25;;;;;;;;;;9994537;28;20058;-68
2023/01/08 10:58:40;;;;;;;27.88;26.17;;;;;;;;;;10020615;28;20040;-68
2023/01/08 11:03:36;;;;;;;27.40;25.70;;;;;;;;;;10027971;28;20075;-68
2023/01/08 11:08:33;;;;;;;25.92;24.42;;;;;;;;;;10027522;28;20079;-67
2023/01/08 11:13:29;;;;;;;26.83;25.08;;;;;;;;;;10026053;28;20054;-67
2023/01/08 11:18:26;;;;;;;28.42;26.80;;;;;;;;;;10031718;28;20468;-68
2023/01/08 11:23:24;;;;;;;30.92;29.13;;;;;;;;;;10036523;28;20508;-68
2023/01/08 11:28:41;;;;;;;32.25;29.92;;;;;;;;;;10040090;28;20073;-69
2023/01/08 11:33:38;;;;;;;33.15;31.05;;;;;;;;;;10033099;28;20134;-68
2023/01/08 11:38:34;;;;;;;30.63;28.75;;;;;;;;;;10029713;28;20056;-68
2023/01/08 11:43:30;;;;;;;26.80;25.20;;;;;;;;;;10032308;28;20668;-68
2023/01/08 11:48:48;;;;;;;29.25;27.35;;;;;;;;;;10032956;28;20484;-68
2023/01/08 11:53:46;;;;;;;28.52;26.77;;;;;;;;;;10021358;28;20528;-67
2023/01/08 11:59:07;;;;;;;22.73;21.23;;;;;;;;;;10026212;28;20330;-69
2023/01/08 12:04:03;;;;;;;20.42;19.13;;;;;;;;;;10025901;28;20144;-69
2023/01/08 12:09:02;;;;;;;15.45;14.23;;;;;;;;;;10031896;28;20134;-67
2023/01/08 12:14:17;;;;;;;14.40;13.30;;;;;;;;;;10032729;28;20130;-73
2023/01/08 12:19:26;;;;;;;11.35;10.45;;;;;;;;;;10037700;28;20063;-70
2023/01/08 12:24:28;;;;;;;9.25;8.55;;;;;;;;;;10027810;28;20056;-66
2023/01/08 12:29:50;;;;;;;9.45;8.32;;;;;;;;;;10032006;28;20869;-66
2023/01/08 12:34:50;;;;;;;8.15;7.40;;;;;;;;;;10026131;29;20128;-65
2023/01/08 12:39:50;;;;;;;8.35;7.65;;;;;;;;;;10025225;28;20052;-65
2023/01/08 12:44:47;;;;;;;8.70;8.00;;;;;;;;;;10025325;28;20086;-66
2023/01/08 12:49:48;;;;;;;9.32;8.65;;;;;;;;;;10054634;28;20050;-65
2023/01/08 12:54:51;;;;;;;10.75;9.93;;;;;;;;;;10018169;28;20044;-66
2023/01/08 13:00:18;;;;;;;12.23;11.32;;;;;;;;;;10027223;28;20051;-66
2023/01/08 13:05:17;;;;;;;11.38;10.27;;;;;;;;;;10044166;28;20052;-66
2023/01/08 13:10:22;;;;;;;11.05;10.25;;;;;;;;;;10023288;28;20060;-66
2023/01/08 13:15:20;;;;;;;12.48;11.48;;;;;;;;;;10024435;28;20044;-66
2023/01/08 13:20:20;;;;;;;11.25;10.45;;;;;;;;;;10025557;28;20148;-66
2023/01/08 13:25:16;;;;;;;11.93;10.95;;;;;;;;;;10024026;28;20134;-66
2023/01/08 13:30:31;;;;;;;10.15;9.25;;;;;;;;;;10025935;28;20059;-66
2023/01/08 13:35:30;;;;;;;9.57;8.82;;;;;;;;;;10024433;28;20052;-67
2023/01/08 13:40:51;;;;;;;10.55;9.77;;;;;;;;;;10023383;28;20047;-68
2023/01/08 13:45:57;;;;;;;10.02;9.13;;;;;;;;;;10023602;28;20055;-66
2023/01/08 13:50:54;;;;;;;9.52;8.82;;;;;;;;;;10021214;28;20446;-66
2023/01/08 13:55:54;;;;;;;9.73;8.98;;;;;;;;;;10022987;28;20096;-66
2023/01/08 14:00:52;;;;;;;9.40;8.70;;;;;;;;;;10023396;28;20127;-65
2023/01/08 14:05:50;;;;;;;9.75;9.15;;;;;;;;;;10025779;28;20059;-65
2023/01/08 14:10:46;;;;;;;10.07;9.38;;;;;;;;;;10055251;28;20400;-65
2023/01/08 14:15:43;;;;;;;9.75;8.85;;;;;;;;;;10025693;28;20061;-64
2023/01/08 14:20:40;;;;;;;9.25;8.55;;;;;;;;;;10023665;28;20126;-65
2023/01/08 14:25:36;;;;;;;8.90;7.70;;;;;;;;;;10014314;28;20665;-65
2023/01/08 14:30:34;;;;;;;11.32;8.15;;;;;;;;;;10026336;28;20047;-64
2023/01/08 14:35:32;;;;;;;7.43;6.65;;;;;;;;;;10023139;28;20055;-64
2023/01/08 14:40:33;;;;;;;9.20;7.05;;;;;;;;;;10036836;28;20054;-64
2023/01/08 14:45:31;;;;;;;10.88;7.68;;;;;;;;;;10039227;28;20051;-65
2023/01/08 14:50:28;;;;;;;9.98;7.68;;;;;;;;;;10030784;28;20115;-65
2023/01/08 14:55:25;;;;;;;9.85;8.82;;;;;;;;;;10033665;28;20851;-64
2023/01/08 15:00:26;;;;;;;13.38;8.10;;;;;;;;;;10031902;28;20143;-65
2023/01/08 15:05:25;;;;;;;8.05;7.30;;;;;;;;;;10030298;28;20140;-65
2023/01/08 15:10:32;;;;;;;8.07;7.32;;;;;;;;;;10022882;28;20048;-65
2023/01/08 15:15:29;;;;;;;10.15;7.97;;;;;;;;;;10021376;28;20067;-64
2023/01/08 15:20:30;;;;;;;9.50;7.45;;;;;;;;;;10019990;28;20054;-65
2023/01/08 15:25:28;;;;;;;9.68;8.10;;;;;;;;;;10020454;28;20138;-65
2023/01/08 15:30:27;;;;;;;12.00;8.50;;;;;;;;;;10024683;28;20043;-65
2023/01/08 15:35:24;;;;;;;8.90;7.97;;;;;;;;;;10023918;28;20528;-65
2023/01/08 15:40:21;;;;;;;8.95;8.25;;;;;;;;;;10016212;28;20066;-65
2023/01/08 15:45:19;;;;;;;11.38;10.20;;;;;;;;;;10040310;28;20150;-65
2023/01/08 15:50:16;;;;;;;11.90;9.27;;;;;;;;;;10034675;28;20496;-65
2023/01/08 15:55:16;;;;;;;10.68;9.70;;;;;;;;;;10028798;28;20050;-65
2023/01/08 16:00:13;;;;;;;12.15;10.13;;;;;;;;;;10034081;28;20515;-65
2023/01/08 16:05:10;;;;;;;13.07;11.90;;;;;;;;;;10027778;28;20563;-65
2023/01/08 16:10:07;;;;;;;12.93;11.70;;;;;;;;;;10024611;28;20516;-64
2023/01/08 16:15:06;;;;;;;13.55;12.15;;;;;;;;;;10025138;28;20055;-64
2023/01/08 16:20:03;;;;;;;12.18;11.18;;;;;;;;;;10028249;28;20059;-64
2023/01/08 16:25:00;;;;;;;15.50;12.32;;;;;;;;;;10023252;29;20052;-64
2023/01/08 16:29:56;;;;;;;15.50;13.15;;;;;;;;;;10029628;28;20043;-64
2023/01/08 16:34:53;;;;;;;14.88;13.30;;;;;;;;;;10025040;28;20063;-64
2023/01/08 16:39:50;;;;;;;16.92;13.02;;;;;;;;;;10020692;28;20063;-64
2023/01/08 16:44:46;;;;;;;14.55;13.05;;;;;;;;;;10025433;28;20050;-64
2023/01/08 16:49:42;;;;;;;15.23;13.70;;;;;;;;;;10023028;28;20616;-64
2023/01/08 16:54:39;;;;;;;15.05;13.63;;;;;;;;;;10026277;28;20063;-63
2023/01/08 16:59:35;;;;;;;14.73;13.27;;;;;;;;;;10031415;28;20098;-64
2023/01/08 17:04:31;;;;;;;21.13;14.00;;;;;;;;;;10028459;28;20047;-65
2023/01/08 17:09:28;;;;;;;16.17;13.65;;;;;;;;;;10014925;28;20062;-63
2023/01/08 17:14:24;;;;;;;15.55;14.10;;;;;;;;;;10031502;28;20423;-66
2023/01/08 17:19:20;;;;;;;15.15;13.48;;;;;;;;;;10023171;28;20039;-64
2023/01/08 17:24:17;;;;;;;14.48;13.25;;;;;;;;;;10030433;28;20050;-65
2023/01/08 17:29:13;;;;;;;15.00;13.60;;;;;;;;;;10018608;28;20559;-65
2023/01/08 17:34:11;;;;;;;15.02;13.93;;;;;;;;;;10022793;28;20040;-65
2023/01/08 17:39:08;;;;;;;16.20;14.80;;;;;;;;;;10027163;28;20051;-64
2023/01/08 17:44:06;;;;;;;16.98;15.32;;;;;;;;;;10024949;28;20056;-65
2023/01/08 17:49:03;;;;;;;17.75;16.55;;;;;;;;;;10021949;28;20067;-65
2023/01/08 17:54:00;;;;;;;19.20;17.90;;;;;;;;;;10032082;28;20051;-65
2023/01/08 17:58:56;;;;;;;19.83;18.42;;;;;;;;;;10025666;28;20090;-65
2023/01/08 18:03:52;;;;;;;22.02;20.23;;;;;;;;;;10018185;28;20051;-65
2023/01/08 18:08:48;;;;;;;20.20;18.48;;;;;;;;;;10016355;28;20528;-66
2023/01/08 18:13:45;;;;;;;18.23;17.13;;;;;;;;;;10014270;28;20431;-65
2023/01/08 18:18:41;;;;;;;15.70;14.80;;;;;;;;;;10010178;28;20163;-66
2023/01/08 18:23:38;;;;;;;15.95;14.75;;;;;;;;;;10007385;28;20234;-66
2023/01/08 18:28:34;;;;;;;15.82;14.82;;;;;;;;;;10010408;28;20051;-66
2023/01/08 18:33:31;;;;;;;16.70;15.40;;;;;;;;;;10013036;28;20435;-66
2023/01/08 18:38:28;;;;;;;15.20;14.20;;;;;;;;;;10020365;28;20062;-66
2023/01/08 18:43:24;;;;;;;16.42;15.35;;;;;;;;;;10016182;28;20086;-65
2023/01/08 18:48:20;;;;;;;17.45;16.15;;;;;;;;;;10019031;28;20452;-66
2023/01/08 18:53:17;;;;;;;17.80;16.50;;;;;;;;;;10017453;28;20163;-66
2023/01/08 18:58:13;;;;;;;18.63;17.23;;;;;;;;;;10011318;28;20051;-65
2023/01/08 19:03:11;;;;;;;20.13;18.70;;;;;;;;;;10017572;28;20067;-65
2023/01/08 19:08:07;;;;;;;19.38;18.17;;;;;;;;;;10015402;28;20070;-65
2023/01/08 19:13:03;;;;;;;22.02;20.63;;;;;;;;;;10017312;28;20050;-66
2023/01/08 19:18:00;;;;;;;21.48;20.08;;;;;;;;;;10026931;28;20040;-65
2023/01/08 19:22:56;;;;;;;22.05;20.60;;;;;;;;;;10025123;28;20143;-66
2023/01/08 19:27:52;;;;;;;22.65;21.33;;;;;;;;;;10037971;28;20534;-65
2023/01/08 19:32:49;;;;;;;22.63;21.10;;;;;;;;;;10029738;28;20058;-65
2023/01/08 19:37:45;;;;;;;23.58;22.17;;;;;;;;;;10039108;28;20048;-65
2023/01/08 19:47:57;;;;;;;26.52;24.83;;;;;;;;;;10022159;28;20562;-65
2023/01/08 19:52:55;;;;;;;25.73;24.15;;;;;;;;;;10022063;28;20134;-65
2023/01/08 19:57:53;;;;;;;27.75;25.92;;;;;;;;;;10022800;28;20061;-65
2023/01/08 20:02:50;;;;;;;27.23;25.52;;;;;;;;;;10027630;28;20075;-65
2023/01/08 20:07:49;;;;;;;30.40;28.35;;;;;;;;;;10026222;28;20444;-66
2023/01/08 20:12:46;;;;;;;30.25;28.45;;;;;;;;;;10023878;28;20542;-66
2023/01/08 20:17:43;;;;;;;31.10;29.10;;;;;;;;;;10018093;28;20099;-66
2023/01/08 20:22:40;;;;;;;29.80;27.88;;;;;;;;;;10025180;28;20083;-64
2023/01/08 20:27:36;;;;;;;29.90;27.95;;;;;;;;;;10026901;28;20073;-65
2023/01/08 20:32:33;;;;;;;29.45;27.65;;;;;;;;;;10025243;28;20082;-66
2023/01/08 20:37:29;;;;;;;27.48;25.88;;;;;;;;;;10033817;28;20079;-66
2023/01/08 20:42:25;;;;;;;27.88;26.08;;;;;;;;;;10027116;28;20139;-66
2023/01/08 20:47:30;;;;;;;28.98;27.08;;;;;;;;;;10023669;28;20071;-65
2023/01/08 20:52:27;;;;;;;30.67;28.95;;;;;;;;;;10019985;28;20047;-67
2023/01/08 20:57:24;;;;;;;32.05;30.05;;;;;;;;;;10018706;28;20055;-69
2023/01/08 21:02:20;;;;;;;30.45;28.50;;;;;;;;;;10019378;28;20071;-67
2023/01/08 21:07:17;;;;;;;32.97;31.02;;;;;;;;;;10031204;28;20127;-67
2023/01/08 21:12:14;;;;;;;31.65;29.85;;;;;;;;;;10031156;28;20055;-69
2023/01/08 21:17:10;;;;;;;32.55;30.73;;;;;;;;;;10025829;28;20070;-69
2023/01/08 21:22:07;;;;;;;35.65;33.35;;;;;;;;;;10016343;28;20134;-70
2023/01/08 21:27:03;;;;;;;36.72;34.45;;;;;;;;;;10018663;28;20139;-70
2023/01/08 21:31:59;;;;;;;42.45;40.03;;;;;;;;;;10015599;28;20071;-69
2023/01/08 21:36:55;;;;;;;41.70;39.20;;;;;;;;;;10010175;28;20048;-70
2023/01/08 21:47:08;;;;;;;45.45;42.95;;;;;;;;;;10003752;28;20066;-69
2023/01/08 21:57:20;;;;;;;44.70;42.10;;;;;;;;;;10027653;28;20071;-70
2023/01/08 22:02:18;;;;;;;46.38;43.80;;;;;;;;;;10028604;28;20056;-70
2023/01/08 22:07:14;;;;;;;46.97;44.38;;;;;;;;;;10023876;28;20090;-70
2023/01/08 22:12:12;;;;;;;45.63;43.03;;;;;;;;;;10025987;28;20043;-70
2023/01/08 22:17:09;;;;;;;48.25;45.65;;;;;;;;;;10027573;28;20500;-69
2023/01/08 22:22:05;;;;;;;47.70;44.72;;;;;;;;;;10033905;28;20159;-69
2023/01/08 22:27:08;;;;;;;45.80;43.28;;;;;;;;;;10028516;28;20140;-70
2023/01/08 22:32:05;;;;;;;42.15;39.78;;;;;;;;;;10024637;28;20051;-70
2023/01/08 22:37:01;;;;;;;42.28;39.97;;;;;;;;;;10026075;28;20138;-70
2023/01/08 22:41:57;;;;;;;43.38;40.97;;;;;;;;;;10028497;28;20055;-70
2023/01/08 22:46:55;;;;;;;46.88;44.17;;;;;;;;;;10026943;28;20044;-70
2023/01/08 22:51:51;;;;;;;52.35;49.38;;;;;;;;;;10027932;28;20048;-70
2023/01/08 22:56:47;;;;;;;54.83;51.88;;;;;;;;;;10028461;28;20175;-70
2023/01/08 23:01:44;;;;;;;55.47;52.38;;;;;;;;;;10034642;28;20047;-70
2023/01/08 23:06:40;;;;;;;56.67;53.58;;;;;;;;;;10039225;28;20119;-70
2023/01/08 23:11:36;;;;;;;61.63;58.33;;;;;;;;;;10034368;28;20067;-70
2023/01/08 23:16:33;;;;;;;63.42;60.03;;;;;;;;;;10033136;28;20044;-70
2023/01/08 23:21:29;;;;;;;63.90;60.40;;;;;;;;;;10034634;28;20195;-70
2023/01/08 23:26:27;;;;;;;66.07;62.50;;;;;;;;;;10035853;28;20075;-69
2023/01/08 23:31:25;;;;;;;66.07;62.53;;;;;;;;;;10034277;28;20054;-70
2023/01/08 23:36:22;;;;;;;65.25;61.80;;;;;;;;;;10033536;28;20077;-70
2023/01/08 23:41:19;;;;;;;67.60;64.07;;;;;;;;;;10028053;28;20066;-69
2023/01/08 23:46:16;;;;;;;66.72;63.20;;;;;;;;;;10033213;28;20679;-70
2023/01/08 23:51:12;;;;;;;70.30;66.50;;;;;;;;;;10033322;28;20066;-70
2023/01/08 23:56:08;;;;;;;67.93;64.40;;;;;;;;;;10033218;28;20067;-70
